Terminal Aerodrome Forecast
Issued by NWS Norman, OK

Home | Current Version | Previous Version | Text Only | Print | Product List | Glossary On
Versions: 1 2 3 4 5 6 7 8 9 10 11 12 13 14 15
000
FTUS44 KOUN 271751 CCA
TAFOKC
TAF COR
KOKC 271751Z 2718/2818 15007KT P6SM VCTS SCT050CB SCT120 BKN150
      TEMPO 2719/2723 VRB25G40KT 4SM -TSRA BKN045CB OVC100
     FM280200 13006KT P6SM FEW050 SCT120 BKN250
     FM281500 17005KT P6SM SCT250=

USA.gov is the U.S. government's official web portal to all federal, state and local government web resources and services.